Time;durP1;ratioP1;P1;durP2;ratioP2;P2;SDS_P1;SDS_P2;PMS_P1;PMS_P2;Temp;Humidity;BMP_temperature;BMP_pressure;BME280_temperature;BME280_humidity;BME280_pressure;Samples;Min_cycle;Max_cycle;Signal;HPM_P1;HPM_P2
2022/07/05 00:01:28;;;;;;;1.38;0.00;;;28.30;35.40;;;;;;5074362;28;20163;-51
2022/07/05 00:03:56;;;;;;;0.10;0.00;;;28.30;35.50;;;;;;5074857;28;20139;-48
2022/07/05 00:06:23;;;;;;;0.35;0.20;;;28.30;35.50;;;;;;5076214;28;20161;-50
2022/07/05 00:08:50;;;;;;;1.23;0.10;;;28.20;35.40;;;;;;5078698;28;20123;-49
2022/07/05 00:11:17;;;;;;;0.73;0.10;;;28.20;35.50;;;;;;5079341;28;20127;-49
2022/07/05 00:13:44;;;;;;;3.97;0.08;;;28.20;35.50;;;;;;5069209;28;20047;-51
2022/07/05 00:16:11;;;;;;;1.27;0.25;;;28.20;35.50;;;;;;5073921;28;20127;-49
2022/07/05 00:18:39;;;;;;;0.50;0.10;;;28.20;35.60;;;;;;5077747;28;20047;-49
2022/07/05 00:21:06;;;;;;;1.90;0.10;;;28.10;35.50;;;;;;5077593;28;20421;-48
2022/07/05 00:23:34;;;;;;;0.80;0.10;;;28.10;35.50;;;;;;5084621;28;20040;-48
2022/07/05 00:26:01;;;;;;;0.15;0.00;;;28.10;35.60;;;;;;5084406;28;20041;-50
2022/07/05 00:28:28;;;;;;;0.20;0.10;;;28.10;35.60;;;;;;5075608;28;20044;-48
2022/07/05 00:30:55;;;;;;;0.10;0.00;;;28.00;36.20;;;;;;5075262;28;20080;-49
2022/07/05 00:33:22;;;;;;;0.88;0.30;;;28.00;35.60;;;;;;5075768;28;20045;-50
2022/07/05 00:35:50;;;;;;;0.50;0.00;;;28.00;35.60;;;;;;5079297;28;20128;-51
2022/07/05 00:38:17;;;;;;;0.35;0.10;;;28.00;35.70;;;;;;5078553;28;20036;-48
2022/07/05 00:40:45;;;;;;;0.00;0.00;;;28.00;35.70;;;;;;5060627;28;20558;-50
2022/07/05 00:43:12;;;;;;;0.10;0.00;;;27.90;35.70;;;;;;5078555;28;20048;-53
2022/07/05 00:45:39;;;;;;;0.03;0.00;;;28.00;35.80;;;;;;5079431;28;20147;-51
2022/07/05 00:48:06;;;;;;;0.20;0.20;;;27.90;35.70;;;;;;5072629;28;20047;-48
2022/07/05 00:50:34;;;;;;;0.32;0.00;;;27.90;35.80;;;;;;5073760;28;20119;-48
2022/07/05 00:53:03;;;;;;;0.40;0.00;;;27.90;35.90;;;;;;5071003;28;20041;-52
2022/07/05 00:55:30;;;;;;;0.50;0.00;;;27.90;35.90;;;;;;5076627;28;20040;-48
2022/07/05 00:57:57;;;;;;;1.00;0.10;;;27.80;35.90;;;;;;5074534;28;20132;-50
2022/07/05 01:00:24;;;;;;;0.00;0.00;;;27.80;36.50;;;;;;5076043;28;20048;-51
2022/07/05 01:02:52;;;;;;;0.32;0.20;;;27.80;35.90;;;;;;5080709;28;20051;-50
2022/07/05 01:05:20;;;;;;;0.60;0.10;;;27.80;36.00;;;;;;5072625;28;20048;-49
2022/07/05 01:07:47;;;;;;;0.00;0.00;;;27.80;36.00;;;;;;5068941;28;20037;-49
2022/07/05 01:10:16;;;;;;;0.20;0.03;;;27.80;36.00;;;;;;5086211;28;20147;-49
2022/07/05 01:12:43;;;;;;;0.38;0.10;;;27.70;36.00;;;;;;5074739;28;20040;-48
2022/07/05 01:15:10;;;;;;;0.47;0.00;;;27.70;36.00;;;;;;5075303;28;20070;-71
2022/07/05 01:17:38;;;;;;;0.60;0.00;;;27.70;36.00;;;;;;5076069;28;20043;-69
2022/07/05 01:20:07;;;;;;;0.10;0.10;;;27.70;36.00;;;;;;5073747;28;20125;-69
2022/07/05 01:22:52;;;;;;;0.98;0.10;;;27.70;36.10;;;;;;5075056;28;20128;-71
2022/07/05 01:25:22;;;;;;;0.43;0.00;;;27.70;36.10;;;;;;5068903;28;20052;-71
2022/07/05 01:27:49;;;;;;;1.83;0.00;;;27.60;36.70;;;;;;5073203;28;20045;-68
2022/07/05 01:30:17;;;;;;;0.10;0.10;;;27.60;36.10;;;;;;5078280;28;20416;-71
2022/07/05 01:32:44;;;;;;;1.65;0.03;;;27.60;36.10;;;;;;5076495;28;20199;-71
2022/07/05 01:35:13;;;;;;;0.03;0.00;;;27.60;36.20;;;;;;5083359;28;20044;-69
2022/07/05 01:37:41;;;;;;;0.10;0.00;;;27.50;36.10;;;;;;5072458;28;20473;-70
2022/07/05 01:40:09;;;;;;;0.63;0.10;;;27.50;36.10;;;;;;5089409;28;20056;-71
2022/07/05 01:42:36;;;;;;;0.20;0.10;;;27.50;36.10;;;;;;5072902;28;20128;-71
2022/07/05 01:45:04;;;;;;;2.15;0.10;;;27.50;36.20;;;;;;5077345;28;20124;-71
2022/07/05 01:47:33;;;;;;;0.10;0.10;;;27.50;36.20;;;;;;5081581;28;20498;-71
2022/07/05 01:50:01;;;;;;;0.65;0.10;;;27.40;36.10;;;;;;5074769;28;20098;-71
2022/07/05 01:52:30;;;;;;;1.40;0.03;;;27.40;36.20;;;;;;5069752;28;20036;-72
2022/07/05 01:55:00;;;;;;;0.00;0.00;;;27.40;36.20;;;;;;5084257;28;20048;-70
2022/07/05 01:57:28;;;;;;;0.10;0.08;;;27.40;36.20;;;;;;5061951;28;20397;-71
2022/07/05 01:59:55;;;;;;;1.00;0.00;;;27.40;36.20;;;;;;5078235;28;20504;-71
2022/07/05 02:02:22;;;;;;;0.20;0.00;;;27.30;36.20;;;;;;5074790;28;20040;-71
2022/07/05 02:04:49;;;;;;;0.40;0.08;;;27.40;36.30;;;;;;5072216;28;20072;-71
2022/07/05 02:07:17;;;;;;;2.42;0.28;;;27.30;36.30;;;;;;5064461;28;20746;-71
2022/07/05 02:09:44;;;;;;;0.30;0.00;;;27.30;36.30;;;;;;5077797;28;20115;-71
2022/07/05 02:12:13;;;;;;;0.35;0.00;;;27.30;36.30;;;;;;5081744;28;20063;-71
2022/07/05 02:14:40;;;;;;;1.38;0.10;;;27.30;36.40;;;;;;5074616;28;20047;-71
2022/07/05 02:17:13;;;;;;;0.68;0.00;;;27.30;36.40;;;;;;5070143;28;20044;-71
2022/07/05 02:19:42;;;;;;;0.85;0.35;;;27.30;36.50;;;;;;5066095;28;20045;-71
2022/07/05 02:22:11;;;;;;;4.03;0.08;;;27.30;36.50;;;;;;5074572;28;20156;-71
2022/07/05 02:24:38;;;;;;;0.50;0.00;;;27.30;36.50;;;;;;5072085;28;20044;-71
2022/07/05 02:27:18;;;;;;;1.00;0.10;;;27.20;36.60;;;;;;5060554;28;20437;-70
2022/07/05 02:29:45;;;;;;;0.43;0.43;;;27.20;36.70;;;;;;5081179;28;20412;-69
2022/07/05 02:32:14;;;;;;;1.85;0.10;;;27.20;36.90;;;;;;5071581;28;20047;-70
2022/07/05 02:34:41;;;;;;;3.47;0.13;;;27.20;37.10;;;;;;5081318;28;20576;-70
2022/07/05 02:37:08;;;;;;;4.07;0.10;;;27.20;37.30;;;;;;5088769;28;20705;-71
2022/07/05 02:39:35;;;;;;;3.10;0.17;;;27.20;37.40;;;;;;5083152;28;20054;-71
2022/07/05 02:42:04;;;;;;;1.45;0.10;;;27.20;37.60;;;;;;5079229;28;20097;-71
2022/07/05 02:44:33;;;;;;;2.53;0.10;;;27.20;37.70;;;;;;5076705;28;20052;-71
2022/07/05 02:47:00;;;;;;;2.40;0.15;;;27.20;37.90;;;;;;5080014;28;20055;-71
2022/07/05 02:49:30;;;;;;;5.35;0.20;;;27.10;37.90;;;;;;5084543;28;20040;-69
2022/07/05 02:51:58;;;;;;;0.43;0.35;;;27.10;37.90;;;;;;5085265;28;20384;-71
2022/07/05 02:54:26;;;;;;;2.25;0.40;;;27.10;37.90;;;;;;5063420;28;20040;-71
2022/07/05 02:56:54;;;;;;;3.20;0.10;;;27.10;38.00;;;;;;5066029;28;20094;-70
2022/07/05 02:59:22;;;;;;;1.00;0.05;;;27.10;38.10;;;;;;5080262;28;20036;-71
2022/07/05 03:01:51;;;;;;;3.38;0.10;;;27.10;38.20;;;;;;5063373;28;20045;-72
2022/07/05 03:04:19;;;;;;;5.45;0.10;;;27.10;38.20;;;;;;5064890;28;20521;-70
2022/07/05 03:06:52;;;;;;;3.42;0.10;;;27.10;38.40;;;;;;5065291;28;20036;-70
2022/07/05 03:09:21;;;;;;;3.55;0.20;;;27.10;38.40;;;;;;5077575;28;20123;-69
2022/07/05 03:11:49;;;;;;;1.85;0.17;;;27.10;38.50;;;;;;5064378;28;20044;-70
2022/07/05 03:14:17;;;;;;;0.77;0.10;;;27.10;38.50;;;;;;5068507;28;20056;-71
2022/07/05 03:16:45;;;;;;;0.77;0.08;;;27.00;38.40;;;;;;5082736;28;20044;-70
2022/07/05 03:19:15;;;;;;;0.50;0.30;;;27.00;38.40;;;;;;5087413;28;20056;-69
2022/07/05 03:21:42;;;;;;;0.57;0.57;;;27.00;38.40;;;;;;5093391;28;20123;-70
2022/07/05 03:24:10;;;;;;;2.58;0.20;;;27.10;38.50;;;;;;5089807;28;20307;-70
2022/07/05 03:26:39;;;;;;;0.40;0.10;;;27.00;38.40;;;;;;5065584;28;20113;-69
2022/07/05 03:29:06;;;;;;;2.30;0.10;;;27.00;38.40;;;;;;5073132;28;20066;-69
2022/07/05 03:31:33;;;;;;;0.50;0.00;;;27.00;38.40;;;;;;5085920;28;20508;-69
2022/07/05 03:34:03;;;;;;;5.38;0.10;;;26.90;38.40;;;;;;5091882;28;20048;-69
2022/07/05 03:36:33;;;;;;;3.67;0.20;;;27.00;38.50;;;;;;5086562;28;20059;-69
2022/07/05 03:39:03;;;;;;;1.55;0.10;;;27.00;38.60;;;;;;5084365;28;20044;-71
2022/07/05 03:41:30;;;;;;;1.13;0.03;;;27.00;38.70;;;;;;5058771;28;20036;-71
2022/07/05 03:43:57;;;;;;;0.30;0.10;;;26.90;38.70;;;;;;5067831;28;20040;-69
2022/07/05 03:46:24;;;;;;;1.75;0.10;;;26.90;38.70;;;;;;5076952;28;20127;-67
2022/07/05 03:48:52;;;;;;;0.75;0.08;;;26.90;38.70;;;;;;5085573;28;20049;-68
2022/07/05 03:51:19;;;;;;;0.30;0.10;;;26.90;38.90;;;;;;5083448;28;20080;-67
2022/07/05 03:53:49;;;;;;;1.42;0.70;;;26.90;39.00;;;;;;5084891;28;20571;-67
2022/07/05 03:56:19;;;;;;;4.28;0.10;;;26.90;39.10;;;;;;5078190;28;20040;-70
2022/07/05 03:58:48;;;;;;;0.10;0.00;;;26.90;39.10;;;;;;5083269;28;20045;-70
2022/07/05 04:01:15;;;;;;;1.10;0.10;;;26.90;39.20;;;;;;5077815;28;20048;-70
2022/07/05 04:03:43;;;;;;;6.72;0.17;;;26.90;39.20;;;;;;5078767;28;20127;-70
2022/07/05 04:06:12;;;;;;;0.75;0.00;;;26.90;39.20;;;;;;5074708;28;20048;-70
2022/07/05 04:08:40;;;;;;;0.73;0.10;;;26.90;39.30;;;;;;5059889;28;20050;-70
2022/07/05 04:11:12;;;;;;;2.42;0.05;;;26.90;39.20;;;;;;5080718;28;20184;-70
2022/07/05 04:13:41;;;;;;;0.30;0.10;;;26.90;39.30;;;;;;5068753;28;20037;-70
2022/07/05 04:16:09;;;;;;;2.53;0.10;;;26.80;39.30;;;;;;5083839;28;20051;-70
2022/07/05 04:18:37;;;;;;;0.55;0.10;;;26.90;39.40;;;;;;5062812;28;20044;-70
2022/07/05 04:21:05;;;;;;;0.75;0.10;;;26.80;39.40;;;;;;5083725;28;20067;-70
2022/07/05 04:23:32;;;;;;;0.40;0.00;;;26.80;39.40;;;;;;5062068;28;20042;-70
2022/07/05 04:26:01;;;;;;;4.28;0.10;;;26.80;39.40;;;;;;5066441;28;20040;-70
2022/07/05 04:28:43;;;;;;;1.08;0.40;;;26.80;39.50;;;;;;5061806;28;20036;-70
2022/07/05 04:31:13;;;;;;;0.43;0.10;;;26.80;39.60;;;;;;5081190;28;20548;-70
2022/07/05 04:33:44;;;;;;;0.52;0.20;;;26.80;39.60;;;;;;5064471;28;20064;-70
2022/07/05 04:36:14;;;;;;;0.50;0.03;;;26.80;39.70;;;;;;5078445;28;20040;-70
2022/07/05 04:38:42;;;;;;;0.20;0.10;;;26.80;39.70;;;;;;5061557;28;20119;-70
2022/07/05 04:41:09;;;;;;;1.17;0.32;;;26.80;39.80;;;;;;5068521;28;20121;-70
2022/07/05 04:43:38;;;;;;;1.63;0.10;;;26.80;39.80;;;;;;5054661;28;20096;-70
2022/07/05 04:46:10;;;;;;;0.40;0.10;;;26.80;39.80;;;;;;5078637;28;20123;-70
2022/07/05 04:48:37;;;;;;;0.43;0.10;;;26.80;39.80;;;;;;5076772;28;20452;-70
2022/07/05 04:51:04;;;;;;;3.10;0.10;;;26.80;39.90;;;;;;5077149;28;20067;-69
2022/07/05 04:53:33;;;;;;;2.80;0.17;;;26.80;39.90;;;;;;5074661;28;20040;-69
2022/07/05 04:56:00;;;;;;;2.33;0.10;;;26.80;39.90;;;;;;5073446;28;20032;-70
2022/07/05 04:58:27;;;;;;;0.75;0.00;;;26.80;40.00;;;;;;5070712;28;20051;-68
2022/07/05 05:00:55;;;;;;;1.45;0.95;;;26.80;40.10;;;;;;5074141;28;20397;-70
2022/07/05 05:03:23;;;;;;;0.82;0.10;;;26.80;40.20;;;;;;5079474;28;20582;-69
2022/07/05 05:05:50;;;;;;;1.10;0.00;;;26.80;40.30;;;;;;5078403;28;20515;-69
2022/07/05 05:08:18;;;;;;;1.50;0.10;;;26.80;40.30;;;;;;5073935;28;20126;-68
2022/07/05 05:10:45;;;;;;;0.55;0.20;;;26.80;40.30;;;;;;5081904;28;20048;-69
2022/07/05 05:13:12;;;;;;;0.88;0.10;;;26.80;40.30;;;;;;5080531;28;20048;-69
2022/07/05 05:15:39;;;;;;;1.10;0.10;;;26.70;40.20;;;;;;5074094;28;20688;-69
2022/07/05 05:18:06;;;;;;;0.30;0.10;;;26.70;40.30;;;;;;5073639;28;20064;-69
2022/07/05 05:20:37;;;;;;;2.78;0.10;;;26.80;40.30;;;;;;5074934;28;20087;-66
2022/07/05 05:23:04;;;;;;;1.65;0.40;;;26.80;40.30;;;;;;5056453;28;20086;-68
2022/07/05 05:25:31;;;;;;;0.43;0.10;;;26.70;40.30;;;;;;5084728;28;20119;-67
2022/07/05 05:27:58;;;;;;;3.22;1.55;;;26.70;40.30;;;;;;5086644;28;20110;-70
2022/07/05 05:30:25;;;;;;;1.15;0.10;;;26.80;40.40;;;;;;5085115;28;20040;-72
2022/07/05 05:32:52;;;;;;;2.95;0.38;;;26.70;40.30;;;;;;5081578;28;20579;-70
2022/07/05 05:35:21;;;;;;;3.40;0.10;;;26.70;40.30;;;;;;5079413;28;20060;-70
2022/07/05 05:37:51;;;;;;;1.08;0.15;;;26.70;40.40;;;;;;5084008;28;20036;-70
2022/07/05 05:40:19;;;;;;;1.50;0.47;;;26.70;40.40;;;;;;5087186;28;20050;-70
2022/07/05 05:42:47;;;;;;;1.13;0.30;;;26.70;40.40;;;;;;5076192;28;20048;-70
2022/07/05 05:45:14;;;;;;;1.88;0.10;;;26.70;40.40;;;;;;5078062;28;20054;-69
2022/07/05 05:47:49;;;;;;;0.65;0.00;;;26.70;40.40;;;;;;5076084;28;20040;-71
2022/07/05 05:50:19;;;;;;;0.77;0.28;;;26.70;40.50;;;;;;5076278;28;20557;-71
2022/07/05 05:52:46;;;;;;;1.80;0.10;;;26.70;40.50;;;;;;5072282;28;20102;-71
2022/07/05 05:55:15;;;;;;;2.65;0.10;;;26.70;40.40;;;;;;5080576;28;20040;-71
2022/07/05 05:57:42;;;;;;;3.25;0.10;;;26.70;40.40;;;;;;5078645;28;20078;-70
2022/07/05 06:00:11;;;;;;;3.67;0.10;;;26.70;40.40;;;;;;5083347;28;20089;-70
2022/07/05 06:02:41;;;;;;;0.30;0.10;;;26.70;40.40;;;;;;5079415;28;20054;-70
2022/07/05 06:05:09;;;;;;;2.45;0.65;;;26.70;40.40;;;;;;5075937;28;20044;-71
2022/07/05 06:07:48;;;;;;;0.40;0.10;;;26.70;40.50;;;;;;5080950;28;20056;-71
2022/07/05 06:10:19;;;;;;;1.10;0.03;;;26.70;40.50;;;;;;5084236;28;20132;-71
2022/07/05 06:12:46;;;;;;;0.75;0.10;;;26.70;40.60;;;;;;5080031;28;20044;-71
2022/07/05 06:15:14;;;;;;;0.75;0.10;;;26.60;40.60;;;;;;5074490;28;20531;-71
2022/07/05 06:17:41;;;;;;;3.15;0.10;;;26.70;40.60;;;;;;5074498;28;20056;-71
2022/07/05 06:20:10;;;;;;;3.05;0.10;;;26.70;40.70;;;;;;5076142;28;20166;-71
2022/07/05 06:22:37;;;;;;;2.63;0.10;;;26.70;40.80;;;;;;5072007;28;20036;-69
2022/07/05 06:25:06;;;;;;;1.27;0.10;;;26.70;40.80;;;;;;5072204;28;20049;-69
2022/07/05 06:27:39;;;;;;;1.73;0.20;;;26.70;40.90;;;;;;5081918;28;20089;-70
2022/07/05 06:30:08;;;;;;;2.17;0.17;;;26.80;41.00;;;;;;5078582;28;20085;-70
2022/07/05 06:32:35;;;;;;;5.45;0.20;;;26.80;41.00;;;;;;5076578;28;20068;-70
2022/07/05 06:35:02;;;;;;;6.05;0.40;;;26.80;41.70;;;;;;5081669;28;20060;-70
2022/07/05 06:37:41;;;;;;;4.20;0.10;;;26.80;41.00;;;;;;5077082;28;20044;-70
2022/07/05 06:40:10;;;;;;;6.13;0.30;;;26.80;41.10;;;;;;5085193;28;20044;-70
2022/07/05 06:42:38;;;;;;;6.22;0.73;;;26.80;41.10;;;;;;5073883;28;20033;-69
2022/07/05 06:45:06;;;;;;;1.10;0.10;;;26.80;41.20;;;;;;5075753;28;20078;-70
2022/07/05 06:47:34;;;;;;;1.40;0.10;;;26.80;41.30;;;;;;5071452;28;20062;-69
2022/07/05 06:50:02;;;;;;;1.42;0.10;;;26.80;41.40;;;;;;5068547;28;20154;-70
2022/07/05 06:52:29;;;;;;;4.10;0.40;;;26.90;41.40;;;;;;5072252;28;20041;-69
2022/07/05 06:54:56;;;;;;;1.27;0.40;;;26.90;41.50;;;;;;5078675;28;20420;-69
2022/07/05 06:57:24;;;;;;;0.75;0.30;;;26.90;41.40;;;;;;5072182;28;20048;-69
2022/07/05 06:59:53;;;;;;;1.05;0.20;;;26.90;41.50;;;;;;5076244;28;20404;-70
2022/07/05 07:02:21;;;;;;;0.68;0.10;;;26.90;41.50;;;;;;5075277;28;20053;-67
2022/07/05 07:04:49;;;;;;;1.48;0.70;;;26.90;41.50;;;;;;5072339;28;20062;-70
2022/07/05 07:10:04;;;;;;;0.52;0.20;;;27.00;41.50;;;;;;5082719;28;20036;-69
2022/07/05 07:12:31;;;;;;;0.70;0.20;;;26.90;41.50;;;;;;5074313;28;20040;-68
2022/07/05 07:15:00;;;;;;;1.38;0.20;;;27.00;41.60;;;;;;5076244;28;20040;-68
2022/07/05 07:17:28;;;;;;;2.13;0.30;;;27.00;41.60;;;;;;5086299;28;20524;-68
2022/07/05 07:19:55;;;;;;;1.30;0.28;;;27.00;41.50;;;;;;5070849;28;20036;-68
2022/07/05 07:22:22;;;;;;;1.75;0.47;;;27.00;41.60;;;;;;5082884;28;20044;-68
2022/07/05 07:24:49;;;;;;;1.27;0.10;;;27.00;41.70;;;;;;5079333;28;20116;-68
2022/07/05 07:27:17;;;;;;;3.22;0.35;;;27.00;41.70;;;;;;5086271;28;20037;-68
2022/07/05 07:29:44;;;;;;;3.25;0.20;;;27.00;41.70;;;;;;5076729;28;20051;-68
2022/07/05 07:32:12;;;;;;;1.50;0.20;;;27.00;41.70;;;;;;5086546;28;20385;-68
2022/07/05 07:34:39;;;;;;;5.03;0.20;;;27.00;41.60;;;;;;5081863;28;20041;-69
2022/07/05 07:37:08;;;;;;;3.80;0.10;;;27.00;41.60;;;;;;5085279;28;20046;-64
2022/07/05 07:39:36;;;;;;;5.15;0.28;;;27.10;41.70;;;;;;5083210;28;20500;-63
2022/07/05 07:42:03;;;;;;;8.40;0.50;;;27.00;41.20;;;;;;5070072;28;20093;-52
2022/07/05 07:44:30;;;;;;;3.45;0.60;;;27.00;41.30;;;;;;5087190;28;20142;-59
2022/07/05 07:46:57;;;;;;;3.00;0.73;;;27.00;41.30;;;;;;5078355;28;20034;-59
2022/07/05 07:49:26;;;;;;;9.93;0.85;;;27.10;41.30;;;;;;5086010;28;20050;-56
2022/07/05 07:51:53;;;;;;;2.33;0.40;;;27.10;41.40;;;;;;5088498;28;20044;-55
2022/07/05 07:54:20;;;;;;;0.75;0.15;;;27.10;41.30;;;;;;5089696;28;20090;-61
2022/07/05 07:56:47;;;;;;;6.90;0.65;;;27.20;41.10;;;;;;5085118;28;20040;-63
2022/07/05 07:59:14;;;;;;;1.58;0.30;;;27.20;41.00;;;;;;5082084;28;20152;-58
2022/07/05 08:01:41;;;;;;;1.85;0.20;;;27.30;41.00;;;;;;5080019;28;20119;-64
2022/07/05 08:04:08;;;;;;;2.03;0.30;;;27.40;41.00;;;;;;5087209;28;20052;-58
2022/07/05 08:06:36;;;;;;;2.42;0.20;;;27.50;41.00;;;;;;5083547;28;20047;-55
2022/07/05 08:09:04;;;;;;;1.60;0.30;;;27.50;40.80;;;;;;5087356;28;20118;-48
2022/07/05 08:11:31;;;;;;;2.42;0.30;;;27.60;40.60;;;;;;5086860;28;20039;-56
2022/07/05 08:13:58;;;;;;;3.13;0.25;;;27.70;40.50;;;;;;5083335;28;20036;-61
2022/07/05 08:16:25;;;;;;;2.08;0.70;;;27.80;40.30;;;;;;5077190;28;20105;-62
2022/07/05 08:21:40;;;;;;;1.50;0.43;;;27.90;40.10;;;;;;5085239;28;20043;-64
2022/07/05 08:24:09;;;;;;;2.88;0.45;;;28.00;40.00;;;;;;5083154;28;20128;-65
2022/07/05 08:26:38;;;;;;;3.47;0.85;;;28.10;39.70;;;;;;5059334;28;20040;-65
2022/07/05 08:29:07;;;;;;;2.25;0.20;;;28.20;39.40;;;;;;5081129;28;20122;-66
2022/07/05 08:31:36;;;;;;;1.95;0.10;;;28.30;39.50;;;;;;5074200;28;20044;-67
2022/07/05 08:34:04;;;;;;;5.72;0.40;;;28.30;39.30;;;;;;5074076;28;20110;-56
2022/07/05 08:36:31;;;;;;;2.67;0.20;;;28.40;39.30;;;;;;5083881;28;20032;-61
2022/07/05 08:38:59;;;;;;;0.75;0.50;;;28.40;39.30;;;;;;5083483;28;20071;-61
2022/07/05 08:41:26;;;;;;;0.70;0.20;;;28.50;39.00;;;;;;5081025;28;20037;-71
2022/07/05 08:43:54;;;;;;;2.83;0.10;;;28.60;38.90;;;;;;5082699;28;20115;-62
2022/07/05 08:46:21;;;;;;;1.45;0.35;;;28.60;39.00;;;;;;5075991;28;20040;-64
2022/07/05 08:48:50;;;;;;;0.15;0.10;;;28.60;38.70;;;;;;5086839;28;20111;-61
2022/07/05 08:51:20;;;;;;;0.13;0.10;;;28.70;38.60;;;;;;5087677;28;20036;-62
2022/07/05 08:53:48;;;;;;;2.83;0.52;;;28.70;38.50;;;;;;5080903;28;20045;-63
2022/07/05 08:56:18;;;;;;;0.25;0.15;;;28.70;38.40;;;;;;5073163;28;20067;-63
2022/07/05 08:58:46;;;;;;;3.47;0.35;;;28.80;38.40;;;;;;5069028;28;20483;-61
2022/07/05 09:01:14;;;;;;;1.50;0.10;;;28.80;38.10;;;;;;5089011;28;20036;-53
2022/07/05 09:03:44;;;;;;;1.55;0.10;;;28.90;37.90;;;;;;5085434;28;20109;-55
2022/07/05 09:06:13;;;;;;;2.55;0.10;;;28.90;37.80;;;;;;5077484;28;20048;-52
2022/07/05 09:08:41;;;;;;;1.20;0.10;;;28.90;37.80;;;;;;5082826;28;20361;-49
2022/07/05 09:11:10;;;;;;;0.60;0.10;;;29.00;37.70;;;;;;5082871;28;20127;-66
2022/07/05 09:13:40;;;;;;;0.65;0.10;;;29.00;37.50;;;;;;5075397;28;20075;-64
2022/07/05 09:16:08;;;;;;;2.30;0.10;;;29.00;37.10;;;;;;5088070;28;20068;-62
2022/07/05 09:18:43;;;;;;;2.00;0.10;;;29.10;37.10;;;;;;5070495;28;20052;-61
2022/07/05 09:21:16;;;;;;;2.85;0.50;;;29.10;37.00;;;;;;5080101;28;20052;-60
2022/07/05 09:23:43;;;;;;;1.67;0.10;;;29.10;36.80;;;;;;5081082;28;20040;-68
2022/07/05 09:26:11;;;;;;;0.70;0.57;;;29.20;36.80;;;;;;5079590;28;20047;-68
2022/07/05 09:28:55;;;;;;;1.38;0.22;;;29.20;36.60;;;;;;5075764;28;20047;-70
2022/07/05 09:31:30;;;;;;;1.05;0.13;;;29.30;36.40;;;;;;5085427;28;20507;-67
2022/07/05 09:34:08;;;;;;;1.65;0.10;;;29.30;36.40;;;;;;5087894;28;20449;-70
2022/07/05 09:36:56;;;;;;;2.38;0.10;;;29.30;36.40;;;;;;5077897;28;20740;-66
2022/07/05 09:39:37;;;;;;;1.00;0.10;;;29.40;36.50;;;;;;5079996;28;20500;-66
2022/07/05 09:42:17;;;;;;;1.33;0.10;;;29.40;36.40;;;;;;5075716;28;20090;-72
2022/07/05 09:44:48;;;;;;;2.72;0.60;;;29.40;36.50;;;;;;5079356;28;20048;-67
2022/07/05 09:47:16;;;;;;;3.65;0.20;;;29.40;36.50;;;;;;5084152;28;20046;-64
2022/07/05 09:49:45;;;;;;;3.22;0.10;;;29.50;37.20;;;;;;5071922;28;20033;-62
2022/07/05 09:52:27;;;;;;;0.85;0.10;;;29.50;36.60;;;;;;5080476;28;20040;-63
2022/07/05 09:55:02;;;;;;;0.75;0.10;;;29.60;36.40;;;;;;5086364;28;20044;-62
2022/07/05 09:57:29;;;;;;;0.40;0.15;;;29.60;36.50;;;;;;5084792;28;20039;-58
2022/07/05 10:00:03;;;;;;;0.85;0.10;;;29.60;36.40;;;;;;5087443;28;20535;-58
2022/07/05 10:02:38;;;;;;;0.40;0.20;;;29.60;36.00;;;;;;5061755;28;20047;-58
2022/07/05 10:05:13;;;;;;;3.08;0.17;;;29.70;35.90;;;;;;5076433;28;20147;-58
2022/07/05 10:07:45;;;;;;;1.50;0.10;;;29.70;35.60;;;;;;5079413;28;20040;-58
2022/07/05 10:10:14;;;;;;;0.90;0.10;;;29.70;35.60;;;;;;5085301;28;20045;-57
2022/07/05 10:12:43;;;;;;;0.95;0.13;;;29.70;35.70;;;;;;5076294;28;20102;-63
2022/07/05 10:15:13;;;;;;;2.08;0.35;;;29.70;35.60;;;;;;5088662;28;20480;-63
2022/07/05 10:17:44;;;;;;;1.75;0.75;;;29.70;36.60;;;;;;5088952;28;20042;-59
2022/07/05 10:20:18;;;;;;;0.30;0.10;;;29.60;37.10;;;;;;5084379;28;20040;-59
2022/07/05 10:22:47;;;;;;;4.00;0.35;;;29.40;37.60;;;;;;5085845;28;20048;-69
2022/07/05 10:25:14;;;;;;;1.25;0.10;;;29.30;38.10;;;;;;5091294;28;20051;-67
2022/07/05 10:27:42;;;;;;;0.45;0.10;;;29.30;38.30;;;;;;5077427;28;20123;-61
2022/07/05 10:30:12;;;;;;;1.10;0.50;;;29.20;38.30;;;;;;5081455;28;20094;-68
2022/07/05 10:32:40;;;;;;;1.10;0.20;;;29.20;38.10;;;;;;5083291;28;20052;-61
2022/07/05 10:35:08;;;;;;;1.23;0.10;;;29.20;38.30;;;;;;5087879;28;20066;-61
2022/07/05 10:37:36;;;;;;;1.08;0.10;;;29.20;38.50;;;;;;5082629;28;20044;-70
2022/07/05 10:40:08;;;;;;;7.03;0.10;;;29.20;38.70;;;;;;5081324;28;20032;-69
2022/07/05 10:42:40;;;;;;;2.13;0.10;;;29.20;38.90;;;;;;5066585;28;20097;-73
2022/07/05 10:45:27;;;;;;;0.25;0.10;;;29.20;38.90;;;;;;5087983;28;20123;-70
2022/07/05 10:48:16;;;;;;;0.10;0.10;;;29.40;38.50;;;;;;5082561;28;20093;-68
2022/07/05 10:50:51;;;;;;;0.95;0.10;;;29.50;38.20;;;;;;5088589;28;20040;-68
2022/07/05 10:53:21;;;;;;;0.63;0.20;;;29.60;38.10;;;;;;5087349;28;20884;-67
2022/07/05 10:55:50;;;;;;;1.98;0.10;;;29.80;37.50;;;;;;5086247;28;20047;-64
2022/07/05 10:58:22;;;;;;;0.57;0.20;;;30.00;37.50;;;;;;5075130;28;20040;-63
2022/07/05 11:01:43;;;;;;;1.40;0.75;;;29.90;37.20;;;;;;5078607;28;20739;-62
2022/07/05 11:04:32;;;;;;;4.22;0.20;;;29.80;37.10;;;;;;5088471;28;20058;-64
2022/07/05 11:06:59;;;;;;;0.38;0.10;;;29.70;37.40;;;;;;5085539;28;20044;-65
2022/07/05 11:09:26;;;;;;;0.30;0.13;;;29.50;37.60;;;;;;5087721;28;20040;-64
2022/07/05 11:12:07;;;;;;;1.77;0.28;;;29.40;37.60;;;;;;5084241;28;20124;-63
2022/07/05 11:14:37;;;;;;;0.20;0.20;;;29.30;37.70;;;;;;5085659;28;20040;-63
2022/07/05 11:17:30;;;;;;;0.20;0.20;;;29.30;37.70;;;;;;5085269;28;20036;-62
2022/07/05 11:20:06;;;;;;;2.00;0.10;;;29.20;37.80;;;;;;5085479;28;20040;-63
2022/07/05 11:22:35;;;;;;;0.20;0.20;;;29.10;37.80;;;;;;5084552;28;20040;-63
2022/07/05 11:25:03;;;;;;;1.00;0.10;;;29.00;37.80;;;;;;5086096;28;20044;-62
2022/07/05 11:27:32;;;;;;;2.15;0.10;;;29.00;37.80;;;;;;5077560;28;20044;-64
2022/07/05 11:29:59;;;;;;;0.65;0.10;;;29.00;37.90;;;;;;5078622;28;20044;-62
2022/07/05 11:32:38;;;;;;;1.75;0.10;;;29.00;37.60;;;;;;5078466;28;20032;-63
2022/07/05 11:35:16;;;;;;;3.10;0.10;;;29.00;37.40;;;;;;5080967;28;20047;-63
2022/07/05 11:37:59;;;;;;;1.85;0.10;;;29.00;37.30;;;;;;5071470;28;20511;-63
2022/07/05 11:40:31;;;;;;;2.70;0.20;;;29.00;37.20;;;;;;5078511;28;20049;-63
2022/07/05 11:42:59;;;;;;;0.32;0.10;;;29.00;37.10;;;;;;5077263;28;20044;-63
2022/07/05 11:45:26;;;;;;;0.25;0.10;;;28.90;36.90;;;;;;5076235;28;20037;-63
2022/07/05 11:47:58;;;;;;;0.68;0.10;;;29.00;36.90;;;;;;5079517;28;20044;-63
2022/07/05 11:50:32;;;;;;;1.08;0.20;;;29.00;36.90;;;;;;5084973;28;20056;-62
2022/07/05 11:53:00;;;;;;;0.10;0.10;;;29.00;36.90;;;;;;5079466;28;20098;-61
2022/07/05 11:55:28;;;;;;;0.60;0.10;;;29.00;36.70;;;;;;5069862;28;20050;-62
2022/07/05 11:57:57;;;;;;;1.95;0.17;;;29.10;37.20;;;;;;5081123;28;20487;-62
2022/07/05 12:00:32;;;;;;;2.42;0.63;;;29.10;36.40;;;;;;5074343;28;20041;-61
2022/07/05 12:03:01;;;;;;;0.82;0.10;;;29.10;36.30;;;;;;5075836;28;20509;-61
2022/07/05 12:05:32;;;;;;;1.85;0.10;;;29.10;36.30;;;;;;5079737;28;20036;-61
2022/07/05 12:07:59;;;;;;;0.20;0.10;;;29.10;36.20;;;;;;5077425;28;20724;-61
2022/07/05 12:13:11;;;;;;;2.53;0.10;;;29.30;36.10;;;;;;5077610;28;20041;-61
2022/07/05 12:15:39;;;;;;;0.30;0.10;;;29.30;36.00;;;;;;5077598;28;20071;-61
2022/07/05 12:18:09;;;;;;;3.00;0.10;;;29.40;36.00;;;;;;5073692;28;20082;-61
2022/07/05 12:20:37;;;;;;;0.22;0.08;;;29.40;35.90;;;;;;5079349;28;20114;-61
2022/07/05 12:23:05;;;;;;;0.40;0.10;;;29.40;35.70;;;;;;5076349;28;20106;-61
2022/07/05 12:25:34;;;;;;;0.40;0.10;;;29.40;35.70;;;;;;5076189;28;20044;-61
2022/07/05 12:28:05;;;;;;;0.60;0.10;;;29.50;35.80;;;;;;5074682;28;20087;-54
2022/07/05 12:30:33;;;;;;;0.40;0.17;;;29.60;35.90;;;;;;5079654;28;20048;-62
2022/07/05 12:33:02;;;;;;;0.85;0.10;;;29.60;35.90;;;;;;5086461;28;20040;-65
2022/07/05 12:35:36;;;;;;;1.30;0.30;;;29.70;35.90;;;;;;5080432;28;20119;-68
2022/07/05 12:38:09;;;;;;;0.30;0.30;;;29.80;35.70;;;;;;5082150;28;20036;-67
2022/07/05 12:40:38;;;;;;;2.60;0.10;;;29.90;35.60;;;;;;5070135;28;20056;-65
2022/07/05 12:43:10;;;;;;;1.08;0.10;;;30.00;35.30;;;;;;5081069;28;20040;-61
2022/07/05 12:45:38;;;;;;;0.10;0.10;;;30.00;35.10;;;;;;5073839;28;20140;-69
2022/07/05 12:48:08;;;;;;;1.75;0.10;;;30.00;35.00;;;;;;5082562;28;20101;-64
2022/07/05 12:50:48;;;;;;;0.45;0.10;;;30.20;35.00;;;;;;5079989;28;20040;-62
2022/07/05 12:58:49;;;;;;;0.90;0.10;;;30.30;34.60;;;;;;5073375;28;20040;-69
2022/07/05 13:01:24;;;;;;;1.40;0.20;;;30.30;34.60;;;;;;5081608;28;20044;-70
2022/07/05 13:04:08;;;;;;;0.13;0.10;;;30.40;34.50;;;;;;5079902;28;20056;-73
2022/07/05 13:06:51;;;;;;;2.83;0.10;;;30.50;34.40;;;;;;5083054;28;20043;-63
2022/07/05 13:09:32;;;;;;;0.20;0.10;;;30.50;34.50;;;;;;5082057;28;20516;-68
2022/07/05 13:12:07;;;;;;;0.20;0.10;;;30.50;34.30;;;;;;5078064;28;20036;-64
2022/07/05 13:14:34;;;;;;;3.70;0.30;;;30.50;34.30;;;;;;5076851;28;20527;-64